createdAt,value
2023-01-02T00:00:54.224Z,9.99
2023-01-02T00:03:20.849Z,9.82
2023-01-02T00:05:47.469Z,9.74
2023-01-02T00:08:14.025Z,9.70
2023-01-02T00:10:40.614Z,9.66
2023-01-02T00:13:07.083Z,9.63
2023-01-02T00:15:33.727Z,9.58
2023-01-02T00:18:00.271Z,9.55
2023-01-02T00:20:26.816Z,9.51
2023-01-02T00:22:53.732Z,9.60
2023-01-02T00:25:20.313Z,9.63
2023-01-02T00:27:46.824Z,9.80
2023-01-02T00:30:13.878Z,9.97
2023-01-02T00:32:40.548Z,10.03
2023-01-02T00:35:07.437Z,10.06
2023-01-02T00:37:33.969Z,9.91
2023-01-02T00:40:00.495Z,9.81
2023-01-02T00:42:26.990Z,9.61
2023-01-02T00:44:53.497Z,9.44
2023-01-02T00:47:20.056Z,9.37
2023-01-02T00:49:46.589Z,9.22
2023-01-02T00:52:13.143Z,9.31
2023-01-02T00:54:39.649Z,9.36
2023-01-02T00:57:06.193Z,9.25
2023-01-02T00:59:32.713Z,9.15
2023-01-02T01:01:59.345Z,9.10
2023-01-02T01:04:25.951Z,9.36
2023-01-02T01:06:52.429Z,9.66
2023-01-02T01:09:18.943Z,9.93
2023-01-02T01:11:45.444Z,10.10
2023-01-02T01:14:12.097Z,10.21
2023-01-02T01:16:38.732Z,10.27
2023-01-02T01:19:05.260Z,10.37
2023-01-02T01:21:31.859Z,10.39
2023-01-02T01:23:58.589Z,10.42
2023-01-02T01:26:25.351Z,10.46
2023-01-02T01:28:55.885Z,10.50
2023-01-02T01:31:24.060Z,10.52
2023-01-02T01:33:51.072Z,10.54
2023-01-02T01:36:20.667Z,10.58
2023-01-02T01:38:48.060Z,10.64
2023-01-02T01:41:17.217Z,10.65
2023-01-02T01:43:51.553Z,10.65
2023-01-02T01:46:23.661Z,10.61
2023-01-02T01:48:57.733Z,10.57
2023-01-02T01:51:26.262Z,10.51
2023-01-02T01:54:00.238Z,10.44
2023-01-02T01:56:27.764Z,10.35
2023-01-02T01:58:54.394Z,10.28
2023-01-02T02:01:20.988Z,10.21
2023-01-02T02:03:50.463Z,10.14
2023-01-02T02:06:18.789Z,10.15
2023-01-02T02:08:52.369Z,10.20
2023-01-02T02:11:19.166Z,10.16
2023-01-02T02:13:46.932Z,10.16
2023-01-02T02:16:21.545Z,10.12
2023-01-02T02:19:04.318Z,10.10
2023-01-02T02:21:33.481Z,10.08
2023-01-02T02:24:32.903Z,10.05
2023-01-02T02:27:20.810Z,10.00
2023-01-02T02:30:11.649Z,9.98
2023-01-02T02:33:02.647Z,9.92
2023-01-02T02:35:54.823Z,9.88
2023-01-02T02:38:39.439Z,9.85
2023-01-02T02:41:17.752Z,9.82
2023-01-02T02:44:06.095Z,9.77
2023-01-02T02:46:38.272Z,9.74
2023-01-02T02:49:21.481Z,9.70
2023-01-02T02:51:56.362Z,9.64
2023-01-02T02:54:27.184Z,9.63
2023-01-02T02:56:55.196Z,9.58
2023-01-02T02:59:22.703Z,9.53
2023-01-02T03:01:49.648Z,9.49
2023-01-02T03:04:18.795Z,9.42
2023-01-02T03:06:52.823Z,9.37
2023-01-02T03:09:44.035Z,9.32
2023-01-02T03:12:13.294Z,9.24
2023-01-02T03:14:56.826Z,9.21
2023-01-02T03:18:04.539Z,9.16
2023-01-02T03:20:40.954Z,9.07
2023-01-02T03:23:18.717Z,9.03
2023-01-02T03:25:46.715Z,9.02
2023-01-02T03:28:17.877Z,8.96
2023-01-02T03:30:48.191Z,8.92
2023-01-02T03:33:26.719Z,8.89
2023-01-02T03:35:59.719Z,8.82
2023-01-02T03:38:31.828Z,8.81
2023-01-02T03:41:22.817Z,8.79
2023-01-02T03:43:56.728Z,8.80
2023-01-02T03:46:44.994Z,8.80
2023-01-02T03:49:22.717Z,8.78
2023-01-02T03:51:49.959Z,8.77
2023-01-02T03:54:18.735Z,8.78
2023-01-02T03:57:20.586Z,8.79
2023-01-02T04:00:04.521Z,8.80
2023-01-02T04:02:42.083Z,8.79
2023-01-02T04:05:23.937Z,8.79
2023-01-02T04:08:02.734Z,8.79
2023-01-02T04:10:30.409Z,8.80
2023-01-02T04:13:04.139Z,8.82
2023-01-02T04:15:34.334Z,8.81
2023-01-02T04:18:06.013Z,8.80
2023-01-02T04:20:38.998Z,8.81
2023-01-02T04:23:12.678Z,8.82
2023-01-02T04:25:57.033Z,8.87
2023-01-02T04:28:30.619Z,8.89
2023-01-02T04:31:04.113Z,8.89
2023-01-02T04:33:35.277Z,8.95
2023-01-02T04:36:10.111Z,9.01
2023-01-02T04:38:36.935Z,9.05
2023-01-02T04:41:04.823Z,9.08
2023-01-02T04:43:31.293Z,9.10
2023-01-02T04:45:57.896Z,9.15
2023-01-02T04:48:24.500Z,9.20
2023-01-02T04:50:51.094Z,9.23
2023-01-02T04:53:17.695Z,9.25
2023-01-02T04:55:44.246Z,9.22
2023-01-02T04:58:10.814Z,9.21
2023-01-02T05:00:37.402Z,9.19
2023-01-02T05:03:05.062Z,9.16
2023-01-02T05:05:32.099Z,9.13
2023-01-02T05:07:59.554Z,9.12
2023-01-02T05:10:26.119Z,9.13
2023-01-02T05:12:52.678Z,9.13
2023-01-02T05:15:19.207Z,9.18
2023-01-02T05:17:45.684Z,9.20
2023-01-02T05:20:13.590Z,9.19
2023-01-02T05:23:00.380Z,9.17
2023-01-02T05:25:27.558Z,9.12
2023-01-02T05:27:55.383Z,9.09
2023-01-02T05:30:22.826Z,9.09
2023-01-02T05:32:49.491Z,9.06
2023-01-02T05:35:16.129Z,9.03
2023-01-02T05:37:42.696Z,8.98
2023-01-02T05:40:09.958Z,8.91
2023-01-02T05:42:36.484Z,8.60
2023-01-02T05:45:04.601Z,8.46
2023-01-02T05:47:31.103Z,8.42
2023-01-02T05:49:57.642Z,8.35
2023-01-02T05:52:24.209Z,8.25
2023-01-02T05:54:50.722Z,8.15
2023-01-02T05:57:17.432Z,8.10
2023-01-02T05:59:43.980Z,8.09
2023-01-02T06:02:10.580Z,8.25
2023-01-02T06:04:37.207Z,8.47
2023-01-02T06:07:03.816Z,8.71
2023-01-02T06:09:30.322Z,8.93
2023-01-02T06:11:57.095Z,9.05
2023-01-02T06:14:24.191Z,9.02
2023-01-02T06:16:50.738Z,8.54
2023-01-02T06:19:17.235Z,8.39
2023-01-02T06:21:43.743Z,8.08
2023-01-02T06:24:10.268Z,7.89
2023-01-02T06:26:36.823Z,7.81
2023-01-02T06:29:04.331Z,7.75
2023-01-02T06:31:33.399Z,7.70
2023-01-02T06:34:01.997Z,7.73
2023-01-02T06:36:34.783Z,7.87
2023-01-02T06:39:01.615Z,8.02
2023-01-02T06:41:28.218Z,8.12
2023-01-02T06:43:54.768Z,8.19
2023-01-02T06:46:23.562Z,8.27
2023-01-02T06:48:50.370Z,8.27
2023-01-02T06:51:19.670Z,8.23
2023-01-02T06:53:46.623Z,8.18
2023-01-02T06:56:15.454Z,8.12
2023-01-02T06:58:41.935Z,8.09
2023-01-02T07:01:11.341Z,8.07
2023-01-02T07:03:38.118Z,8.01
2023-01-02T07:06:10.270Z,7.95
2023-01-02T07:08:37.090Z,7.93
2023-01-02T07:11:12.940Z,8.01
2023-01-02T07:13:40.715Z,8.17
2023-01-02T07:16:09.552Z,8.29
2023-01-02T07:18:36.936Z,8.45
2023-01-02T07:21:04.545Z,8.16
2023-01-02T07:23:31.055Z,8.00
2023-01-02T07:26:00.372Z,7.96
2023-01-02T07:28:28.686Z,7.90
2023-01-02T07:30:59.920Z,7.98
2023-01-02T07:33:28.519Z,8.03
2023-01-02T07:36:03.676Z,8.05
2023-01-02T07:38:30.360Z,8.09
2023-01-02T07:40:56.860Z,8.13
2023-01-02T07:43:23.853Z,8.13
2023-01-02T07:45:51.186Z,8.09
2023-01-02T07:48:18.221Z,8.15
2023-01-02T07:50:44.975Z,8.21
2023-01-02T07:53:11.563Z,8.23
2023-01-02T07:55:38.114Z,8.27
2023-01-02T07:58:04.670Z,8.36
2023-01-02T08:00:31.218Z,8.34
2023-01-02T08:02:57.724Z,8.21
2023-01-02T08:05:24.228Z,8.17
2023-01-02T08:07:50.774Z,8.27
2023-01-02T08:10:17.356Z,8.22
2023-01-02T08:12:46.649Z,8.34
2023-01-02T08:15:13.278Z,8.43
2023-01-02T08:17:41.949Z,8.40
2023-01-02T08:20:09.479Z,8.45
2023-01-02T08:22:36.183Z,8.51
2023-01-02T08:25:03.388Z,8.66
2023-01-02T08:27:29.894Z,8.78
2023-01-02T08:29:56.389Z,9.11
2023-01-02T08:32:22.945Z,9.40
2023-01-02T08:34:49.496Z,9.47
2023-01-02T08:37:16.114Z,9.57
2023-01-02T08:39:42.601Z,10.07
2023-01-02T08:42:09.175Z,10.48
2023-01-02T08:44:38.096Z,11.11
2023-01-02T08:47:06.574Z,11.46
2023-01-02T08:49:33.246Z,11.60
2023-01-02T08:51:59.844Z,11.70
2023-01-02T08:54:26.511Z,12.42
2023-01-02T08:56:53.403Z,12.64
2023-01-02T08:59:20.129Z,12.24
2023-01-02T09:01:46.801Z,11.87
2023-01-02T09:04:15.922Z,11.79
2023-01-02T09:06:43.416Z,11.70
2023-01-02T09:09:12.256Z,12.08
2023-01-02T09:11:51.600Z,12.65
2023-01-02T09:14:19.994Z,12.92
2023-01-02T09:16:46.940Z,12.80
2023-01-02T09:19:13.580Z,13.46
2023-01-02T09:21:40.132Z,14.81
2023-01-02T09:24:07.485Z,14.73
2023-01-02T09:26:34.777Z,15.36
2023-01-02T09:29:01.349Z,15.96
2023-01-02T09:31:28.002Z,16.66
2023-01-02T09:33:55.286Z,16.30
2023-01-02T09:36:22.975Z,17.21
2023-01-02T09:38:58.623Z,17.31
2023-01-02T09:41:42.127Z,17.11
2023-01-02T09:44:16.013Z,17.89
2023-01-02T09:46:48.347Z,17.22
2023-01-02T09:49:20.062Z,17.55
2023-01-02T09:51:47.589Z,18.51
2023-01-02T09:54:23.275Z,18.49
2023-01-02T09:56:54.785Z,17.76
2023-01-02T09:59:29.309Z,17.96
2023-01-02T10:02:06.817Z,16.97
2023-01-02T10:04:50.617Z,17.01
2023-01-02T10:07:22.127Z,16.94
2023-01-02T10:10:00.908Z,16.54
2023-01-02T10:12:41.901Z,16.86
2023-01-02T10:15:15.865Z,16.85
2023-01-02T10:17:48.430Z,16.42
2023-01-02T10:20:17.742Z,16.89
2023-01-02T10:22:53.354Z,16.98
2023-01-02T10:25:29.718Z,16.60
2023-01-02T10:28:30.448Z,15.35
2023-01-02T10:31:26.333Z,15.45
2023-01-02T10:33:57.088Z,15.84
2023-01-02T10:36:36.271Z,16.19
2023-01-02T10:39:07.448Z,16.33
2023-01-02T10:41:35.328Z,16.56
2023-01-02T10:44:05.798Z,17.08
2023-01-02T10:46:35.497Z,17.34
2023-01-02T10:49:03.675Z,16.57
2023-01-02T10:51:31.202Z,16.85
2023-01-02T10:54:05.939Z,16.70
2023-01-02T10:56:34.658Z,16.73
2023-01-02T10:59:02.263Z,16.54
2023-01-02T11:01:29.746Z,15.84
2023-01-02T11:03:56.373Z,15.16
2023-01-02T11:06:35.173Z,14.51
2023-01-02T11:09:29.858Z,14.35
2023-01-02T11:12:00.508Z,14.15
2023-01-02T11:14:36.364Z,14.02
2023-01-02T11:17:10.410Z,13.85
2023-01-02T11:19:43.038Z,13.70
2023-01-02T11:22:11.502Z,13.72
2023-01-02T11:25:06.633Z,13.85
2023-01-02T11:27:41.469Z,13.92
2023-01-02T11:30:25.533Z,13.95
2023-01-02T11:33:22.002Z,13.99
2023-01-02T11:35:52.091Z,14.02
2023-01-02T11:38:29.134Z,14.04
2023-01-02T11:41:00.486Z,14.09
2023-01-02T11:43:52.089Z,14.05
2023-01-02T11:46:23.978Z,14.05
2023-01-02T11:48:53.648Z,14.03
2023-01-02T11:51:21.764Z,13.97
2023-01-02T11:53:53.117Z,13.89
2023-01-02T11:56:30.462Z,13.90
2023-01-02T11:59:11.889Z,13.90
2023-01-02T12:02:00.386Z,13.96
2023-01-02T12:04:27.256Z,14.14
2023-01-02T12:07:27.675Z,14.05
2023-01-02T12:10:06.573Z,14.09
2023-01-02T12:13:21.904Z,14.07
2023-01-02T12:15:58.510Z,13.97
2023-01-02T12:18:39.213Z,13.75
2023-01-02T12:21:14.896Z,13.55
2023-01-02T12:23:46.119Z,13.71
2023-01-02T12:26:17.309Z,13.65
2023-01-02T12:29:13.814Z,13.76
2023-01-02T12:32:21.869Z,13.64
2023-01-02T12:35:07.624Z,13.52
2023-01-02T12:37:54.320Z,13.72
2023-01-02T12:40:47.235Z,13.73
2023-01-02T12:43:32.236Z,13.84
2023-01-02T12:46:39.982Z,13.96
2023-01-02T12:49:20.633Z,13.90
2023-01-02T12:52:07.002Z,13.90
2023-01-02T12:54:36.236Z,13.91
2023-01-02T12:57:35.844Z,13.95
2023-01-02T13:00:17.937Z,13.79
2023-01-02T13:03:22.671Z,13.74
2023-01-02T13:06:01.498Z,13.71
2023-01-02T13:08:51.268Z,13.64
2023-01-02T13:11:30.193Z,13.54
2023-01-02T13:13:58.751Z,13.50
2023-01-02T13:16:26.499Z,13.22
2023-01-02T13:19:02.791Z,13.09
2023-01-02T13:21:46.492Z,13.19
2023-01-02T13:24:17.648Z,13.25
2023-01-02T13:26:44.593Z,13.25
2023-01-02T13:29:11.034Z,13.17
2023-01-02T13:31:47.325Z,13.15
2023-01-02T13:34:31.136Z,13.20
2023-01-02T13:37:10.094Z,13.21
2023-01-02T13:39:39.577Z,13.19
2023-01-02T13:42:38.262Z,13.14
2023-01-02T13:45:12.083Z,13.10
2023-01-02T13:47:45.179Z,13.05
2023-01-02T13:50:11.686Z,13.02
2023-01-02T13:52:41.034Z,12.99
2023-01-02T13:55:21.244Z,12.90
2023-01-02T13:58:15.842Z,12.86
2023-01-02T14:00:51.625Z,12.87
2023-01-02T14:03:23.781Z,12.82
2023-01-02T14:05:56.701Z,12.73
2023-01-02T14:08:33.231Z,12.68
2023-01-02T14:11:05.890Z,12.65
2023-01-02T14:13:43.128Z,12.59
2023-01-02T14:16:28.224Z,12.56
2023-01-02T14:19:15.043Z,12.52
2023-01-02T14:21:49.133Z,12.53
2023-01-02T14:24:30.794Z,12.52
2023-01-02T14:27:01.211Z,12.50
2023-01-02T14:29:29.614Z,12.52
2023-01-02T14:32:04.052Z,12.51
2023-01-02T14:34:30.803Z,12.51
2023-01-02T14:36:59.581Z,12.48
2023-01-02T14:39:30.599Z,12.44
2023-01-02T14:42:29.422Z,12.42
2023-01-02T14:45:03.250Z,12.44
2023-01-02T14:47:42.792Z,12.45
2023-01-02T14:50:18.360Z,12.44
2023-01-02T14:52:52.510Z,12.40
2023-01-02T14:55:24.152Z,12.37
2023-01-02T14:57:53.302Z,12.35
2023-01-02T15:00:38.418Z,12.26
2023-01-02T15:03:19.815Z,12.21
2023-01-02T15:05:53.652Z,12.17
2023-01-02T15:08:30.603Z,12.13
2023-01-02T15:11:22.571Z,12.09
2023-01-02T15:14:05.780Z,12.05
2023-01-02T15:16:38.206Z,12.01
2023-01-02T15:19:04.828Z,11.98
2023-01-02T15:21:31.676Z,11.92
2023-01-02T15:24:00.339Z,11.86
2023-01-02T15:26:33.327Z,11.84
2023-01-02T15:29:06.926Z,11.80
2023-01-02T15:31:33.748Z,11.75
2023-01-02T15:34:01.013Z,11.75
2023-01-02T15:36:36.742Z,11.74
2023-01-02T15:39:17.247Z,11.70
2023-01-02T15:41:47.333Z,11.68
2023-01-02T15:44:43.978Z,11.70
2023-01-02T15:47:11.788Z,11.73
2023-01-02T15:49:40.863Z,11.71
2023-01-02T15:52:16.228Z,11.72
2023-01-02T15:54:42.888Z,11.68
2023-01-02T15:57:17.640Z,11.65
2023-01-02T15:59:46.214Z,11.61
2023-01-02T16:02:40.795Z,11.55
2023-01-02T16:05:16.120Z,11.55
2023-01-02T16:07:48.100Z,11.56
2023-01-02T16:10:19.601Z,11.51
2023-01-02T16:13:05.244Z,11.50
2023-01-02T16:15:35.653Z,11.54
2023-01-02T16:18:02.948Z,11.47
2023-01-02T16:20:30.005Z,11.41
2023-01-02T16:23:04.365Z,11.39
2023-01-02T16:25:33.917Z,11.36
2023-01-02T16:28:35.271Z,11.32
2023-01-02T16:31:17.118Z,11.26
2023-01-02T16:33:45.859Z,11.22
2023-01-02T16:36:15.094Z,11.17
2023-01-02T16:38:52.028Z,11.14
2023-01-02T16:41:42.174Z,11.11
2023-01-02T16:44:16.721Z,11.09
2023-01-02T16:46:45.424Z,11.04
2023-01-02T16:49:15.848Z,11.03
2023-01-02T16:51:45.354Z,11.11
2023-01-02T16:54:16.279Z,11.09
2023-01-02T16:56:42.980Z,11.06
2023-01-02T16:59:09.791Z,11.03
2023-01-02T17:01:36.675Z,11.02
2023-01-02T17:04:03.941Z,10.98
2023-01-02T17:06:31.485Z,10.95
2023-01-02T17:09:01.661Z,10.93
2023-01-02T17:11:28.316Z,10.93
2023-01-02T17:13:54.832Z,10.91
2023-01-02T17:16:21.422Z,10.88
2023-01-02T17:18:48.004Z,10.88
2023-01-02T17:21:14.799Z,10.85
2023-01-02T17:23:41.556Z,10.84
2023-01-02T17:26:08.313Z,10.88
2023-01-02T17:28:34.915Z,10.97
2023-01-02T17:31:01.409Z,10.91
2023-01-02T17:33:27.945Z,10.94
2023-01-02T17:35:54.607Z,10.89
2023-01-02T17:38:21.156Z,10.87
2023-01-02T17:40:47.719Z,10.84
2023-01-02T17:43:14.212Z,10.83
2023-01-02T17:45:42.560Z,10.79
2023-01-02T17:48:12.172Z,10.79
2023-01-02T17:50:40.109Z,10.84
2023-01-02T17:53:07.076Z,10.78
2023-01-02T17:55:33.668Z,10.74
2023-01-02T17:58:01.224Z,10.77
2023-01-02T18:00:28.668Z,10.74
2023-01-02T18:02:55.626Z,10.72
2023-01-02T18:05:23.146Z,10.69
2023-01-02T18:07:49.817Z,10.66
2023-01-02T18:10:19.895Z,10.70
2023-01-02T18:12:47.313Z,10.66
2023-01-02T18:15:15.918Z,10.66
2023-01-02T18:17:42.717Z,10.61
2023-01-02T18:20:14.699Z,10.56
2023-01-02T18:22:48.378Z,10.54
2023-01-02T18:25:21.802Z,10.53
2023-01-02T18:27:48.788Z,10.58
2023-01-02T18:30:24.733Z,10.62
2023-01-02T18:33:00.785Z,10.60
2023-01-02T18:38:28.833Z,10.60
2023-01-02T18:40:55.434Z,10.59
2023-01-02T18:43:35.788Z,10.53
2023-01-02T18:46:20.881Z,10.53
2023-01-02T18:48:47.720Z,10.45
2023-01-02T18:51:21.398Z,10.42
2023-01-02T18:53:53.218Z,10.40
2023-01-02T18:56:24.275Z,10.36
2023-01-02T18:58:56.715Z,10.32
2023-01-02T19:01:30.054Z,10.31
2023-01-02T19:04:24.039Z,10.26
2023-01-02T19:06:56.029Z,10.38
2023-01-02T19:09:33.727Z,10.33
2023-01-02T19:12:34.064Z,10.25
2023-01-02T19:15:02.487Z,10.25
2023-01-02T19:17:32.431Z,10.30
2023-01-02T19:20:00.272Z,10.31
2023-01-02T19:22:33.442Z,10.35
2023-01-02T19:25:08.857Z,10.33
2023-01-02T19:27:38.229Z,10.34
2023-01-02T19:30:23.469Z,10.24
2023-01-02T19:32:49.976Z,10.18
2023-01-02T19:35:25.642Z,10.20
2023-01-02T19:37:52.528Z,10.22
2023-01-02T19:40:21.499Z,10.16
2023-01-02T19:42:49.739Z,10.14
2023-01-02T19:45:18.215Z,10.10
2023-01-02T19:47:46.118Z,10.04
2023-01-02T19:50:15.621Z,10.03
2023-01-02T19:52:42.518Z,10.06
2023-01-02T19:55:10.476Z,10.04
2023-01-02T19:57:37.038Z,10.01
2023-01-02T20:00:07.205Z,9.97
2023-01-02T20:02:34.218Z,9.92
2023-01-02T20:05:00.851Z,9.92
2023-01-02T20:07:27.385Z,9.97
2023-01-02T20:09:54.227Z,9.99
2023-01-02T20:12:30.896Z,10.00
2023-01-02T20:14:58.538Z,9.97
2023-01-02T20:17:25.259Z,9.96
2023-01-02T20:19:51.869Z,9.94
2023-01-02T20:22:18.374Z,10.02
2023-01-02T20:24:44.877Z,10.08
2023-01-02T20:27:11.530Z,10.16
2023-01-02T20:29:38.110Z,10.22
2023-01-02T20:32:04.829Z,10.29
2023-01-02T20:34:31.326Z,10.28
2023-01-02T20:36:58.059Z,10.31
2023-01-02T20:39:24.613Z,10.34
2023-01-02T20:41:51.233Z,10.36
2023-01-02T20:44:17.966Z,10.36
2023-01-02T20:46:44.610Z,10.39
2023-01-02T20:49:11.688Z,10.39
2023-01-02T20:51:39.023Z,10.40
2023-01-02T20:54:06.359Z,10.35
2023-01-02T20:56:33.035Z,10.39
2023-01-02T20:58:59.542Z,10.36
2023-01-02T21:01:26.240Z,10.46
2023-01-02T21:03:54.842Z,10.47
2023-01-02T21:06:21.455Z,10.39
2023-01-02T21:08:47.974Z,10.35
2023-01-02T21:11:14.668Z,10.38
2023-01-02T21:13:41.227Z,10.44
2023-01-02T21:16:07.809Z,10.47
2023-01-02T21:18:36.910Z,10.38
2023-01-02T21:21:10.640Z,10.39
2023-01-02T21:23:39.440Z,10.36
2023-01-02T21:26:08.257Z,10.36
2023-01-02T21:28:35.253Z,10.30
2023-01-02T21:31:02.373Z,10.37
2023-01-02T21:33:30.090Z,10.33
2023-01-02T21:35:59.466Z,10.32
2023-01-02T21:38:27.325Z,10.33
2023-01-02T21:40:54.889Z,10.26
2023-01-02T21:43:22.699Z,10.30
2023-01-02T21:45:49.321Z,10.33
2023-01-02T21:48:15.940Z,10.27
2023-01-02T21:50:42.467Z,10.29
2023-01-02T21:53:08.954Z,10.30
2023-01-02T21:55:35.445Z,10.31
2023-01-02T21:58:12.808Z,10.27
2023-01-02T22:00:39.685Z,10.26
2023-01-02T22:03:06.288Z,10.26
2023-01-02T22:05:32.915Z,10.23
2023-01-02T22:07:59.452Z,10.28
2023-01-02T22:10:26.133Z,10.34
2023-01-02T22:12:53.013Z,10.29
2023-01-02T22:15:19.565Z,10.30
2023-01-02T22:17:46.086Z,10.26
2023-01-02T22:20:12.705Z,10.33
2023-01-02T22:22:39.280Z,10.37
2023-01-02T22:25:07.271Z,10.38
2023-01-02T22:27:33.951Z,10.37
2023-01-02T22:32:48.392Z,10.36
2023-01-02T22:35:14.963Z,10.35
2023-01-02T22:37:41.515Z,10.38
2023-01-02T22:40:08.646Z,10.43
2023-01-02T22:43:06.166Z,10.41
2023-01-02T22:45:42.149Z,10.40
2023-01-02T22:48:21.213Z,10.39
2023-01-02T22:50:50.584Z,10.38
2023-01-02T22:53:21.132Z,10.37
2023-01-02T22:55:49.729Z,10.36
2023-01-02T22:58:16.853Z,10.40
2023-01-02T23:00:45.998Z,10.45
2023-01-02T23:03:14.226Z,10.44
2023-01-02T23:05:41.077Z,10.44
2023-01-02T23:08:08.205Z,10.47
2023-01-02T23:10:34.959Z,10.45
2023-01-02T23:13:01.569Z,10.42
2023-01-02T23:15:28.389Z,10.39
2023-01-02T23:18:15.798Z,10.41
2023-01-02T23:20:43.383Z,10.39
2023-01-02T23:23:10.144Z,10.38
2023-01-02T23:25:41.608Z,10.40
2023-01-02T23:28:08.171Z,10.46
2023-01-02T23:30:35.484Z,10.41
2023-01-02T23:33:02.097Z,10.41
2023-01-02T23:35:28.670Z,10.38
2023-01-02T23:37:55.180Z,10.36
2023-01-02T23:40:21.730Z,10.35
2023-01-02T23:42:48.264Z,10.30
2023-01-02T23:45:14.894Z,10.27
2023-01-02T23:47:41.406Z,10.25
2023-01-02T23:50:08.229Z,10.26
2023-01-02T23:52:34.736Z,10.21
2023-01-02T23:55:01.309Z,10.16
2023-01-02T23:57:28.305Z,10.12
2023-01-02T23:59:54.822Z,10.08
